Time;durP1;ratioP1;P1;durP2;ratioP2;P2;SDS_P1;SDS_P2;PMS_P1;PMS_P2;Temp;Humidity;BMP_temperature;BMP_pressure;BME280_temperature;BME280_humidity;BME280_pressure;Samples;Min_cycle;Max_cycle;Signal;HPM_P1;HPM_P2
2021/03/06 00:00:55;;;;;;;6.40;3.55;;;;;;;5.67;39.15;102778.72;4975756;28;99478;-81
2021/03/06 00:03:23;;;;;;;10.77;3.45;;;;;;;5.42;39.85;102777.44;4978279;28;96959;-80
2021/03/06 00:05:50;;;;;;;6.18;3.30;;;;;;;5.81;39.00;102778.97;4973506;28;96832;-82
2021/03/06 00:08:17;;;;;;;9.82;3.95;;;;;;;5.48;39.59;102774.03;4976393;28;98866;-81
2021/03/06 00:10:42;;;;;;;13.77;4.10;;;;;;;5.67;39.39;102778.72;4985927;28;99638;-81
2021/03/06 00:13:08;;;;;;;;;;;;;;;6.12;38.61;102777.72;4987031;28;96815;-80
2021/03/06 00:15:35;;;;;;;7.68;2.83;;;;;;;6.08;36.89;102781.16;4983623;28;96781;-80
2021/03/06 00:18:02;;;;;;;10.73;3.63;;;;;;;6.05;36.62;102787.25;4979459;28;98360;-80
2021/03/06 00:20:28;;;;;;;12.18;3.63;;;;;;;6.30;36.40;102780.66;4987772;28;98967;-79
2021/03/06 00:22:54;;;;;;;;;;;;;;;6.04;36.90;102787.25;4981700;28;96874;-80
2021/03/06 00:25:21;;;;;;;9.75;2.75;;;;;;;6.05;36.30;102791.59;4982620;28;96871;-81
2021/03/06 00:27:47;;;;;;;6.88;2.90;;;;;;;6.07;36.16;102780.28;4972790;28;99594;-80
2021/03/06 00:30:15;;;;;;;8.48;3.10;;;;;;;6.32;35.77;102779.78;4983477;28;97991;-79
2021/03/06 00:32:42;;;;;;;10.23;2.70;;;;;;;6.29;35.76;102777.13;4989335;28;96841;-81
2021/03/06 00:35:09;;;;;;;6.15;2.80;;;;;;;6.11;36.67;102773.31;4986359;28;96891;-80
2021/03/06 00:37:36;;;;;;;6.85;2.63;;;;;;;5.92;37.00;102777.41;4986662;28;97089;-80
2021/03/06 00:40:04;;;;;;;7.32;2.63;;;;;;;6.26;35.77;102776.19;4980274;28;97474;-79
2021/03/06 00:42:30;;;;;;;8.70;2.88;;;;;;;6.28;35.60;102769.22;4976053;28;98520;-79
2021/03/06 00:44:56;;;;;;;;;;;;;;;5.82;36.26;102773.75;4974099;28;96798;-80
2021/03/06 00:47:22;;;;;;;4.75;2.38;;;;;;;6.04;35.16;102768.88;4977239;28;98813;-79
2021/03/06 00:49:48;;;;;;;;;;;;;;;5.83;36.75;102770.28;4978153;28;98042;-80
2021/03/06 00:52:14;;;;;;;6.55;2.67;;;;;;;5.58;38.16;102770.69;4975116;28;96885;-80
2021/03/06 00:54:39;;;;;;;;;;;;;;;5.46;39.19;102768.75;4977732;28;96868;-80
2021/03/06 00:57:06;;;;;;;6.78;3.40;;;;;;;5.50;40.35;102762.72;4982029;28;97770;-80
2021/03/06 00:59:32;;;;;;;7.18;3.13;;;;;;;5.37;39.84;102767.72;4977594;28;98836;-79
2021/03/06 01:01:58;;;;;;;4.85;2.47;;;;;;;5.66;39.33;102766.47;4974119;28;96750;-80
2021/03/06 01:04:24;;;;;;;5.30;2.55;;;;;;;5.54;38.52;102775.00;4978600;28;97005;-81
2021/03/06 01:06:50;;;;;;;;;;;;;;;5.43;38.53;102759.97;4980290;28;99872;-80
2021/03/06 01:09:16;;;;;;;6.60;3.30;;;;;;;5.26;39.43;102764.00;4975400;28;98813;-80
2021/03/06 01:11:41;;;;;;;5.18;2.72;;;;;;;5.42;38.30;102760.81;4978520;28;96982;-79
2021/03/06 01:14:08;;;;;;;10.45;3.28;;;;;;;5.42;38.34;102760.81;4969073;28;96690;-79
2021/03/06 01:16:34;;;;;;;7.07;2.63;;;;;;;5.08;39.04;102762.81;4982167;28;98233;-80
2021/03/06 01:19:00;;;;;;;6.07;2.90;;;;;;;5.22;38.42;102752.59;4978670;28;99267;-80
2021/03/06 01:21:26;;;;;;;4.97;2.85;;;;;;;5.13;38.51;102745.44;4974148;28;96648;-79
2021/03/06 01:23:52;;;;;;;;;;;;;;;5.29;38.99;102748.34;4964510;28;97033;-80
2021/03/06 01:26:18;;;;;;;5.03;2.65;;;;;;;5.40;38.65;102749.41;4978752;28;98866;-80
2021/03/06 01:28:44;;;;;;;;;;;;;;;5.21;39.25;102754.31;4971132;28;102036;-79
2021/03/06 01:31:11;;;;;;;5.82;2.35;;;;;;;5.16;39.86;102758.59;4969360;28;96781;-80
2021/03/06 01:33:36;;;;;;;4.70;2.50;;;;;;;5.12;40.10;102754.16;4982189;28;96724;-80
2021/03/06 01:36:02;;;;;;;;;;;;;;;5.12;40.00;102756.75;4987683;28;100806;-79
2021/03/06 01:38:28;;;;;;;4.85;2.70;;;;;;;5.07;40.07;102752.28;4992065;28;97744;-79
2021/03/06 01:40:54;;;;;;;7.05;2.85;;;;;;;5.42;37.98;102740.72;4998042;28;95927;-80
2021/03/06 01:43:21;;;;;;;7.00;3.08;;;;;;;5.38;37.92;102748.53;4993018;28;96510;-80
2021/03/06 01:45:47;;;;;;;12.80;3.50;;;;;;;5.43;37.54;102746.84;4988530;28;97903;-80
2021/03/06 01:48:13;;;;;;;;;;;;;;;5.45;37.29;102739.88;4987911;28;97952;-80
2021/03/06 01:50:42;;;;;;;7.85;3.08;;;;;;;5.54;37.41;102742.66;4982724;28;97056;-81
2021/03/06 01:53:09;;;;;;;4.85;2.95;;;;;;;5.47;37.33;102744.31;4980932;28;96785;-80
2021/03/06 01:55:38;;;;;;;8.57;3.33;;;;;;;5.43;36.85;102742.50;4984519;28;98952;-80
2021/03/06 01:58:05;;;;;;;11.23;3.47;;;;;;;5.24;37.50;102743.03;4984285;28;98037;-80
2021/03/06 02:00:32;;;;;;;10.23;3.05;;;;;;;5.39;37.41;102750.25;4989575;28;96893;-79
2021/03/06 02:02:58;;;;;;;8.35;4.00;;;;;;;5.33;37.70;102747.53;4979054;28;96636;-80
2021/03/06 02:05:25;;;;;;;5.85;2.90;;;;;;;5.35;38.15;102745.81;4988046;28;98094;-79
2021/03/06 02:07:51;;;;;;;9.93;3.20;;;;;;;5.48;37.47;102745.19;4994651;28;100302;-80
2021/03/06 02:10:20;;;;;;;;;;;;;;;5.52;37.91;102747.00;4993575;28;96707;-81
2021/03/06 02:12:54;;;;;;;7.20;3.22;;;;;;;5.35;38.00;102746.72;4991576;28;96823;-81
2021/03/06 02:15:26;;;;;;;10.75;3.40;;;;;;;5.53;38.11;102735.66;4990342;28;98028;-80
2021/03/06 02:17:57;;;;;;;8.05;3.45;;;;;;;5.31;38.02;102730.91;4989047;28;97718;-80
2021/03/06 02:20:42;;;;;;;7.93;2.80;;;;;;;5.55;37.67;102734.84;4987895;28;97736;-79
2021/03/06 02:23:34;;;;;;;8.18;3.80;;;;;;;5.49;38.29;102731.22;4989936;28;97295;-80
2021/03/06 02:26:22;;;;;;;8.65;3.15;;;;;;;5.59;38.18;102730.50;4976392;28;97884;-79
2021/03/06 02:28:56;;;;;;;8.15;3.20;;;;;;;5.59;37.96;102733.13;4975896;28;98902;-80
2021/03/06 02:31:23;;;;;;;6.10;2.80;;;;;;;5.66;38.57;102721.88;4975453;28;98507;-79
2021/03/06 02:33:58;;;;;;;8.80;3.17;;;;;;;5.52;38.49;102726.00;4982461;28;96871;-80
2021/03/06 02:36:26;;;;;;;13.43;3.58;;;;;;;5.66;38.01;102723.63;4970126;28;102082;-80
2021/03/06 02:38:55;;;;;;;6.95;3.22;;;;;;;5.45;38.75;102724.13;4968916;28;97835;-81
2021/03/06 02:41:23;;;;;;;5.18;2.58;;;;;;;5.59;38.63;102717.38;4968627;28;98448;-80
2021/03/06 02:43:51;;;;;;;10.88;3.83;;;;;;;5.52;38.42;102726.91;4969784;28;97603;-81
2021/03/06 02:46:20;;;;;;;5.68;2.80;;;;;;;5.45;39.14;102717.16;4970045;28;98966;-81
2021/03/06 02:48:48;;;;;;;7.70;3.25;;;;;;;5.44;39.46;102719.78;4971279;28;98992;-81
2021/03/06 02:51:14;;;;;;;13.23;3.08;;;;;;;5.53;39.40;102723.41;4975798;28;96783;-80
2021/03/06 02:53:40;;;;;;;8.57;3.00;;;;;;;5.45;39.38;102718.91;4977276;28;96766;-80
2021/03/06 02:56:07;;;;;;;6.25;2.78;;;;;;;5.38;39.64;102722.31;4975446;28;99398;-81
2021/03/06 02:58:45;;;;;;;7.80;3.15;;;;;;;5.30;40.00;102726.53;4973431;28;98070;-81
2021/03/06 03:01:21;;;;;;;6.07;3.17;;;;;;;5.30;40.37;102718.66;4959489;28;96874;-81
2021/03/06 03:03:56;;;;;;;10.00;2.90;;;;;;;5.27;40.25;102716.84;4974993;28;97564;-80
2021/03/06 03:06:26;;;;;;;7.20;2.97;;;;;;;5.32;40.36;102717.81;4967092;28;98974;-81
2021/03/06 03:09:00;;;;;;;8.65;3.22;;;;;;;5.49;39.98;102712.88;4974314;28;98981;-81
2021/03/06 03:11:33;;;;;;;8.25;3.17;;;;;;;5.09;40.75;102725.28;4962619;28;96882;-81
2021/03/06 03:14:00;;;;;;;9.15;3.35;;;;;;;5.32;40.65;102720.44;4976709;28;96769;-81
2021/03/06 03:16:31;;;;;;;4.88;2.53;;;;;;;5.27;40.39;102715.97;4974274;28;98134;-81
2021/03/06 03:19:03;;;;;;;7.70;3.03;;;;;;;5.12;41.15;102714.84;4975599;28;99281;-80
2021/03/06 03:21:33;;;;;;;10.60;2.97;;;;;;;5.21;41.24;102709.78;4973654;28;98648;-82
2021/03/06 03:24:02;;;;;;;13.52;3.60;;;;;;;5.12;41.44;102714.84;4975352;28;98658;-80
2021/03/06 03:26:29;;;;;;;11.93;3.47;;;;;;;5.30;40.73;102716.91;4973416;28;98727;-80
2021/03/06 03:28:57;;;;;;;8.23;3.22;;;;;;;5.27;40.78;102714.22;4972331;28;98067;-81
2021/03/06 03:31:24;;;;;;;8.18;3.03;;;;;;;5.44;40.44;102718.03;4971951;28;97047;-80
2021/03/06 03:33:51;;;;;;;6.13;2.83;;;;;;;5.40;40.38;102715.31;4975475;28;98351;-80
2021/03/06 03:36:21;;;;;;;5.95;3.13;;;;;;;5.17;41.33;102722.81;4964664;28;99119;-80
2021/03/06 03:38:47;;;;;;;6.10;2.80;;;;;;;5.29;41.04;102714.25;4965760;28;98987;-79
2021/03/06 03:41:14;;;;;;;9.30;3.00;;;;;;;5.19;41.47;102727.19;4966277;28;96817;-80
2021/03/06 03:43:40;;;;;;;9.65;3.03;;;;;;;5.21;41.30;102730.75;4962856;28;98233;-79
2021/03/06 03:46:06;;;;;;;5.78;2.65;;;;;;;5.07;41.48;102731.34;4964477;28;99040;-80
2021/03/06 03:48:34;;;;;;;8.60;3.03;;;;;;;5.10;41.56;102731.41;4963102;28;99340;-79
2021/03/06 03:51:02;;;;;;;5.28;2.50;;;;;;;5.18;41.96;102730.69;4967396;28;96812;-78
2021/03/06 03:53:30;;;;;;;5.25;2.38;;;;;;;5.09;41.56;102743.63;4971646;28;96768;-80
2021/03/06 03:55:56;;;;;;;8.15;3.13;;;;;;;5.30;41.33;102739.63;4977855;28;98903;-80
2021/03/06 03:58:22;;;;;;;9.27;2.72;;;;;;;5.28;41.29;102731.72;4980757;28;98932;-79
2021/03/06 04:00:55;;;;;;;6.13;2.83;;;;;;;5.17;41.46;102734.16;4977047;28;98334;-79
2021/03/06 04:03:21;;;;;;;7.97;2.90;;;;;;;4.92;42.28;102731.97;4976006;28;96821;-80
2021/03/06 04:05:47;;;;;;;7.35;2.60;;;;;;;5.05;42.18;102728.72;4967481;28;98916;-80
2021/03/06 04:08:13;;;;;;;;;;;;;;;5.08;42.34;102734.00;4974619;28;99197;-79
2021/03/06 04:10:39;;;;;;;5.60;2.65;;;;;;;5.03;42.36;102746.13;4974385;28;96702;-79
2021/03/06 04:13:06;;;;;;;10.18;2.90;;;;;;;5.01;41.80;102744.31;4974878;28;98681;-80
2021/03/06 04:15:32;;;;;;;8.48;3.15;;;;;;;4.75;42.83;102742.09;4990364;28;98905;-80
2021/03/06 04:17:58;;;;;;;;;;;;;;;5.04;41.86;102741.78;4978430;28;98262;-79
2021/03/06 04:20:24;;;;;;;7.45;2.95;;;;;;;5.03;41.75;102743.50;4971881;28;97186;-80
2021/03/06 04:22:50;;;;;;;;;;;;;;;4.87;43.00;102743.16;4973597;28;96767;-80
2021/03/06 04:25:16;;;;;;;10.30;2.90;;;;;;;4.54;43.22;102753.84;4972287;28;98847;-80
2021/03/06 04:27:43;;;;;;;6.45;2.78;;;;;;;4.74;43.46;102750.78;4970492;28;99235;-80
2021/03/06 04:30:11;;;;;;;6.28;2.50;;;;;;;4.53;43.97;102758.19;4973093;28;98085;-79
2021/03/06 04:32:37;;;;;;;5.50;2.92;;;;;;;4.75;43.53;102754.28;4974596;28;96810;-79
2021/03/06 04:35:04;;;;;;;7.63;3.00;;;;;;;4.68;43.49;102762.88;4975883;28;97930;-79
2021/03/06 04:37:30;;;;;;;6.60;2.80;;;;;;;4.64;43.46;102761.06;4972952;28;98910;-81
2021/03/06 04:39:56;;;;;;;;;;;;;;;4.61;43.21;102763.59;4966891;28;96752;-80
2021/03/06 04:42:22;;;;;;;6.35;3.10;;;;;;;4.55;43.70;102758.22;4974550;28;97004;-79
2021/03/06 04:44:49;;;;;;;7.53;3.08;;;;;;;4.60;43.23;102754.84;4973126;28;98988;-80
2021/03/06 04:47:16;;;;;;;5.90;2.60;;;;;;;4.50;43.65;102750.28;4973386;28;98720;-80
2021/03/06 04:49:42;;;;;;;5.65;2.80;;;;;;;4.58;43.85;102751.34;4972526;28;96926;-80
2021/03/06 04:52:07;;;;;;;;;;;;;;;4.85;43.54;102751.03;4976658;28;98681;-80
2021/03/06 04:54:33;;;;;;;5.13;2.72;;;;;;;4.54;44.73;102759.06;4979744;28;99381;-80
2021/03/06 04:56:59;;;;;;;;;;;;;;;4.64;43.65;102751.47;4996670;28;98923;-80
2021/03/06 04:59:25;;;;;;;8.52;3.25;;;;;;;4.62;43.82;102760.13;4989388;28;97399;-80
2021/03/06 05:01:52;;;;;;;9.65;2.65;;;;;;;4.90;43.11;102754.59;4995148;28;96619;-80
2021/03/06 05:04:17;;;;;;;9.45;2.83;;;;;;;4.82;43.00;102756.19;4997276;28;97763;-80
2021/03/06 05:06:45;;;;;;;;;;;;;;;4.89;43.41;102757.19;4998511;28;97696;-78
2021/03/06 05:09:11;;;;;;;6.85;2.10;;;;;;;4.62;43.54;102763.63;4998853;28;95893;-79
2021/03/06 05:11:37;;;;;;;9.23;3.08;;;;;;;4.48;43.59;102758.94;4994979;28;96515;-80
2021/03/06 05:14:03;;;;;;;;;;;;;;;4.66;43.22;102764.59;4996172;28;97750;-80
2021/03/06 05:16:29;;;;;;;7.68;2.33;;;;;;;4.68;43.30;102762.88;4990931;28;98030;-80
2021/03/06 05:18:56;;;;;;;10.35;3.17;;;;;;;4.53;43.17;102763.44;4985849;28;96890;-80
2021/03/06 05:21:22;;;;;;;8.93;2.40;;;;;;;4.82;43.45;102764.03;4984557;28;97398;-80
2021/03/06 05:23:47;;;;;;;;;;;;;;;4.34;43.56;102769.13;4983139;28;97827;-80
2021/03/06 05:26:14;;;;;;;6.13;2.65;;;;;;;4.71;43.33;102770.81;4981589;28;98244;-80
2021/03/06 05:28:39;;;;;;;;;;;;;;;4.72;42.76;102778.72;4971447;28;97528;-80
2021/03/06 05:31:05;;;;;;;8.48;2.50;;;;;;;4.94;42.67;102772.13;4980908;28;97770;-81
2021/03/06 05:33:31;;;;;;;;;;;;;;;4.81;43.19;102775.38;4977619;28;98845;-80
2021/03/06 05:35:58;;;;;;;8.43;2.20;;;;;;;4.67;43.24;102776.81;4978969;28;98654;-80
2021/03/06 05:38:24;;;;;;;6.45;2.38;;;;;;;4.81;43.40;102767.50;4961684;28;96893;-81
2021/03/06 05:40:50;;;;;;;;;;;;;;;4.83;43.25;102773.66;4979906;28;96938;-80
2021/03/06 05:43:17;;;;;;;6.05;2.28;;;;;;;4.69;43.43;102778.63;4969769;28;97746;-81
2021/03/06 05:45:45;;;;;;;7.82;3.10;;;;;;;4.74;43.07;102770.84;4965740;28;98969;-81
2021/03/06 05:48:12;;;;;;;10.30;2.85;;;;;;;4.61;43.61;102779.31;4958601;28;96960;-80
2021/03/06 05:50:38;;;;;;;4.85;2.50;;;;;;;4.86;43.56;102778.97;4968993;28;96859;-80
2021/03/06 05:53:06;;;;;;;7.38;3.40;;;;;;;4.86;43.35;102776.34;4976872;28;99330;-80
2021/03/06 05:55:34;;;;;;;10.18;3.28;;;;;;;4.98;42.74;102778.34;4976354;28;98901;-80
2021/03/06 05:58:01;;;;;;;5.55;2.90;;;;;;;4.65;43.55;102774.19;4971969;28;96804;-80
2021/03/06 06:00:27;;;;;;;11.65;2.90;;;;;;;4.88;43.39;102766.78;4972876;28;98321;-81
2021/03/06 06:02:55;;;;;;;8.93;2.70;;;;;;;5.09;42.63;102777.69;4971222;28;99511;-81
2021/03/06 06:05:23;;;;;;;7.88;3.35;;;;;;;4.85;43.05;102771.97;4985945;28;98515;-80
2021/03/06 06:07:52;;;;;;;10.32;2.55;;;;;;;4.97;43.40;102776.56;4989723;28;97946;-81
2021/03/06 06:10:19;;;;;;;8.10;2.97;;;;;;;4.92;43.25;102773.88;4976809;28;97281;-81
2021/03/06 06:12:45;;;;;;;7.95;2.75;;;;;;;5.06;42.73;102768.88;4973752;28;98891;-81
2021/03/06 06:15:13;;;;;;;6.47;2.60;;;;;;;4.93;43.30;102770.38;4967223;28;98861;-81
2021/03/06 06:17:39;;;;;;;8.52;2.60;;;;;;;4.93;43.38;102764.25;4971463;28;97159;-80
2021/03/06 06:20:06;;;;;;;5.97;2.65;;;;;;;5.14;42.86;102773.41;4976869;28;96973;-80
2021/03/06 06:22:33;;;;;;;10.25;2.65;;;;;;;5.25;42.47;102772.75;4975217;28;98909;-80
2021/03/06 06:24:58;;;;;;;17.33;3.08;;;;;;;5.26;43.08;102770.13;4971802;28;99226;-80
2021/03/06 06:27:26;;;;;;;;;;;;;;;5.44;42.21;102770.47;4972846;28;96878;-79
2021/03/06 06:29:54;;;;;;;5.68;2.13;;;;;;;5.22;42.58;102774.44;4975061;28;96988;-80
2021/03/06 06:32:22;;;;;;;6.72;2.28;;;;;;;5.16;42.89;102769.09;4973029;28;99681;-80
2021/03/06 06:34:59;;;;;;;5.68;2.55;;;;;;;5.53;42.11;102782.84;4975171;28;98868;-80
2021/03/06 06:37:25;;;;;;;10.50;3.00;;;;;;;4.56;44.04;102779.22;4976233;28;96801;-80
2021/03/06 06:39:51;;;;;;;5.63;2.60;;;;;;;5.30;42.76;102781.56;4972340;28;96842;-81
2021/03/06 06:42:17;;;;;;;;;;;;;;;5.41;42.50;102782.63;4975579;28;98822;-80
2021/03/06 06:44:55;;;;;;;6.80;2.22;;;;;;;5.38;42.63;102785.22;4972548;28;98925;-81
2021/03/06 06:47:22;;;;;;;10.13;2.40;;;;;;;5.40;43.05;102780.88;4961872;28;96877;-81
2021/03/06 06:49:50;;;;;;;6.10;2.50;;;;;;;5.19;42.79;102792.72;4973527;28;96848;-80
2021/03/06 06:52:19;;;;;;;7.55;2.50;;;;;;;5.11;43.38;102785.59;4967512;28;98910;-80
2021/03/06 06:54:52;;;;;;;7.10;2.60;;;;;;;5.45;43.16;102787.94;4976293;28;99105;-81
2021/03/06 06:57:19;;;;;;;8.30;2.53;;;;;;;5.41;43.13;102790.50;4985031;28;96903;-80
2021/03/06 06:59:54;;;;;;;8.07;2.60;;;;;;;5.55;42.18;102799.50;4987129;28;96680;-81
2021/03/06 07:02:20;;;;;;;6.90;2.78;;;;;;;5.56;42.72;102803.91;4990279;28;97810;-82
2021/03/06 07:04:49;;;;;;;10.73;2.83;;;;;;;5.75;42.49;102803.34;4990140;28;97801;-81
2021/03/06 07:07:17;;;;;;;9.93;2.50;;;;;;;5.89;41.80;102801.88;4976065;28;96839;-81
2021/03/06 07:10:01;;;;;;;10.77;2.53;;;;;;;5.60;42.19;102803.97;4971645;28;96838;-81
2021/03/06 07:12:29;;;;;;;7.50;2.42;;;;;;;5.82;41.83;102794.72;4976186;28;99786;-81
2021/03/06 07:14:56;;;;;;;9.73;3.33;;;;;;;5.42;43.15;102805.38;4980075;28;98714;-81
2021/03/06 07:17:23;;;;;;;10.95;3.38;;;;;;;5.96;42.16;102795.00;4987367;28;96547;-81
2021/03/06 07:19:49;;;;;;;8.48;2.38;;;;;;;6.20;41.82;102797.09;4985572;28;97118;-81
2021/03/06 07:22:15;;;;;;;;;;;;;;;6.11;41.90;102804.81;4987398;28;96923;-80
2021/03/06 07:24:40;;;;;;;5.60;2.35;;;;;;;6.06;41.55;102793.38;4977529;28;97706;-80
2021/03/06 07:27:10;;;;;;;9.00;2.78;;;;;;;6.17;41.71;102794.44;4987108;28;96816;-81
2021/03/06 07:29:36;;;;;;;10.50;2.83;;;;;;;6.11;42.12;102794.31;4983834;28;96778;-82
2021/03/06 07:32:08;;;;;;;;;;;;;;;6.25;41.49;102793.69;4981113;28;98083;-80
2021/03/06 07:34:36;;;;;;;8.95;1.80;;;;;;;6.39;41.13;102796.50;4984573;28;97806;-81
2021/03/06 07:37:05;;;;;;;6.95;2.15;;;;;;;6.55;40.97;102789.72;4972559;28;96760;-81
2021/03/06 07:39:39;;;;;;;8.23;2.30;;;;;;;6.47;40.88;102789.63;4980001;28;97096;-80
2021/03/06 07:42:27;;;;;;;6.05;2.00;;;;;;;6.86;40.79;102793.63;4971399;28;101663;-81
2021/03/06 07:44:58;;;;;;;7.47;2.40;;;;;;;6.82;40.43;102790.09;4988669;28;99446;-81
2021/03/06 07:47:36;;;;;;;10.10;2.42;;;;;;;6.48;41.49;102788.78;4976147;28;96850;-80
2021/03/06 07:50:08;;;;;;;5.88;2.15;;;;;;;6.59;40.99;102775.75;4960139;28;96932;-80
2021/03/06 07:52:37;;;;;;;6.35;1.95;;;;;;;7.30;39.73;102776.59;4970094;28;98197;-80
2021/03/06 07:55:05;;;;;;;5.63;1.52;;;;;;;7.47;39.73;102776.78;4967117;28;98827;-80
2021/03/06 07:57:31;;;;;;;4.32;1.90;;;;;;;7.48;39.55;102779.41;4963715;28;96974;-81
2021/03/06 07:59:57;;;;;;;10.07;1.95;;;;;;;7.57;39.26;102779.50;4977062;28;97174;-79
2021/03/06 08:02:37;;;;;;;7.35;1.80;;;;;;;7.93;38.63;102783.31;4970043;28;97738;-80
2021/03/06 08:05:03;;;;;;;6.72;1.92;;;;;;;7.59;39.39;102783.03;4970981;28;98940;-79
2021/03/06 08:07:40;;;;;;;9.30;2.08;;;;;;;7.89;38.50;102779.75;4980279;28;99040;-79
2021/03/06 08:10:08;;;;;;;9.45;1.85;;;;;;;8.29;37.96;102788.81;4975546;28;97138;-81
2021/03/06 08:12:34;;;;;;;7.40;1.95;;;;;;;7.83;38.87;102792.88;4974413;28;98928;-81
2021/03/06 08:15:28;;;;;;;6.35;1.98;;;;;;;7.72;39.07;102788.41;4978697;28;98068;-79
2021/03/06 08:17:56;;;;;;;8.43;1.92;;;;;;;7.69;39.15;102785.72;4937436;28;98395;-78
2021/03/06 08:20:25;;;;;;;6.15;2.13;;;;;;;8.15;38.66;102789.59;4971440;28;97425;-78
2021/03/06 08:23:20;;;;;;;7.32;2.13;;;;;;;8.16;38.39;102786.97;4981421;28;97663;-80
2021/03/06 08:25:51;;;;;;;8.23;1.80;;;;;;;8.22;38.55;102794.91;4982731;28;98942;-80
2021/03/06 08:28:48;;;;;;;11.10;2.33;;;;;;;7.97;39.28;102795.63;4985382;28;96716;-83
2021/03/06 08:31:38;;;;;;;7.43;2.13;;;;;;;8.05;39.38;102799.19;4982332;28;96825;-82
2021/03/06 08:34:28;;;;;;;7.60;1.80;;;;;;;7.38;40.86;102795.97;4973306;28;99923;-81
2021/03/06 08:40:11;;;;;;;9.95;2.35;;;;;;;8.08;39.84;102799.19;4973316;28;97371;-82
2021/03/06 08:42:39;;;;;;;9.43;2.47;;;;;;;8.36;39.42;102801.19;4978179;28;96935;-80
2021/03/06 08:45:08;;;;;;;13.07;2.42;;;;;;;8.55;39.16;102796.91;4981872;28;97826;-79
2021/03/06 08:47:36;;;;;;;12.70;2.40;;;;;;;8.88;38.89;102801.47;4992652;28;99567;-80
2021/03/06 08:50:07;;;;;;;11.73;2.67;;;;;;;8.24;40.24;102798.44;4980381;28;97383;-80
2021/03/06 08:52:33;;;;;;;10.32;2.13;;;;;;;8.28;40.03;102792.31;4982977;28;96682;-81
2021/03/06 08:54:59;;;;;;;5.65;2.05;;;;;;;8.67;39.71;102793.44;4977230;28;99165;-80
2021/03/06 08:57:32;;;;;;;7.50;2.00;;;;;;;8.25;40.71;102797.59;4976779;28;101439;-80
2021/03/06 09:00:01;;;;;;;6.10;2.30;;;;;;;8.83;39.85;102787.38;4982421;28;96836;-79
2021/03/06 09:02:29;;;;;;;12.10;2.72;;;;;;;8.82;39.85;102785.63;4975797;28;97383;-80
2021/03/06 09:05:08;;;;;;;11.13;2.17;;;;;;;9.18;38.89;102788.41;4971577;28;98286;-78
2021/03/06 09:07:36;;;;;;;5.32;1.52;;;;;;;9.30;38.84;102784.00;4969937;28;100617;-82
2021/03/06 09:10:33;;;;;;;8.45;2.17;;;;;;;8.96;39.30;102786.56;4983876;28;97337;-81
2021/03/06 09:13:01;;;;;;;7.15;1.92;;;;;;;9.03;39.52;102790.09;4970181;28;96172;-80
2021/03/06 09:15:35;;;;;;;15.68;2.35;;;;;;;9.07;39.51;102791.84;4981092;28;98036;-79
2021/03/06 09:18:05;;;;;;;9.07;2.20;;;;;;;9.92;38.09;102787.56;4990608;28;97747;-81
2021/03/06 09:20:38;;;;;;;7.28;1.80;;;;;;;9.80;38.10;102798.13;4985023;28;96606;-80
2021/03/06 09:23:04;;;;;;;5.88;2.35;;;;;;;9.93;37.82;102796.38;4985558;28;97146;-81
2021/03/06 09:25:31;;;;;;;;;;;;;;;10.06;37.64;102789.31;4985951;28;98994;-81
2021/03/06 09:27:58;;;;;;;12.55;2.53;;;;;;;10.08;37.95;102788.44;4983524;28;98796;-78
2021/03/06 09:30:27;;;;;;;9.93;2.05;;;;;;;9.97;38.25;102784.94;4978985;28;97642;-79
2021/03/06 09:32:53;;;;;;;9.88;1.70;;;;;;;9.36;39.46;102784.03;4980392;28;96747;-77
2021/03/06 09:35:20;;;;;;;10.27;2.05;;;;;;;9.96;38.59;102786.72;4979081;28;99082;-78
2021/03/06 09:38:02;;;;;;;10.25;2.47;;;;;;;10.37;38.33;102793.72;4982669;28;99111;-80
2021/03/06 09:40:28;;;;;;;8.65;1.85;;;;;;;8.69;41.00;102792.59;4987744;28;96830;-80
2021/03/06 09:42:54;;;;;;;;;;;;;;;9.03;41.05;102785.69;4987145;28;96705;-80
2021/03/06 09:45:26;;;;;;;11.27;2.33;;;;;;;9.71;39.43;102790.22;4986656;28;100474;-79
2021/03/06 09:47:52;;;;;;;13.13;1.73;;;;;;;9.74;39.34;102781.41;4988695;28;101842;-79
2021/03/06 09:50:17;;;;;;;;;;;;;;;9.07;40.77;102787.47;4990824;28;97072;-79
2021/03/06 09:52:44;;;;;;;7.45;1.88;;;;;;;9.91;39.50;102780.53;4978291;28;96959;-81
2021/03/06 09:55:18;;;;;;;10.63;1.75;;;;;;;9.50;40.12;102777.91;4981108;28;102543;-77
2021/03/06 09:57:44;;;;;;;6.97;1.88;;;;;;;9.48;40.29;102777.00;4988934;28;96743;-78
2021/03/06 10:00:24;;;;;;;8.10;1.58;;;;;;;9.48;40.10;102786.69;4980171;28;96938;-78
2021/03/06 10:03:17;;;;;;;;;;;;;;;;;;;;;
2021/03/06 10:05:43;;;;;;;5.97;1.50;;;;;;;9.45;40.78;102779.63;4982270;28;126598;-79
2021/03/06 10:08:09;;;;;;;112.28;5.38;;;;;;;8.74;41.94;102784.69;4988189;28;98888;-80
2021/03/06 10:10:36;;;;;;;8.10;1.90;;;;;;;9.06;41.53;102777.78;4980180;28;96876;-78
2021/03/06 10:13:02;;;;;;;6.88;2.13;;;;;;;9.37;41.22;102778.75;4973685;28;97248;-79
2021/03/06 10:15:28;;;;;;;;;;;;;;;9.05;42.35;102777.81;4976865;28;98228;-78
2021/03/06 10:20:48;;;;;;;12.85;2.97;;;;;;;10.66;39.27;102775.13;4980751;28;97114;-79
2021/03/06 10:23:14;;;;;;;8.30;2.22;;;;;;;10.61;38.76;102771.63;4986128;28;96714;-80
2021/03/06 10:25:41;;;;;;;6.93;1.90;;;;;;;10.20;39.87;102775.25;4986447;28;98724;-81
2021/03/06 10:28:11;;;;;;;10.52;2.15;;;;;;;9.70;41.58;102772.63;4979856;28;98915;-78
2021/03/06 10:30:40;;;;;;;8.45;2.00;;;;;;;9.79;42.45;102764.69;4973752;28;96724;-79
2021/03/06 10:33:19;;;;;;;10.30;1.65;;;;;;;10.25;41.59;102773.47;4977733;28;96771;-79
2021/03/06 10:35:48;;;;;;;10.15;2.08;;;;;;;9.99;41.40;102760.28;4979449;28;97775;-78
2021/03/06 10:38:24;;;;;;;7.97;2.03;;;;;;;10.06;41.44;102754.97;4978914;28;97857;-79
2021/03/06 10:40:52;;;;;;;6.83;2.37;;;;;;;10.57;40.31;102767.22;4982076;28;97111;-79
2021/03/06 10:43:29;;;;;;;16.30;2.30;;;;;;;9.55;41.57;102764.69;4978656;28;97227;-80
2021/03/06 10:46:07;;;;;;;9.77;2.22;;;;;;;8.91;43.25;102780.41;4978519;28;97913;-79
2021/03/06 10:48:33;;;;;;;13.65;2.33;;;;;;;8.78;44.02;102776.84;4964021;28;98039;-80
2021/03/06 10:50:59;;;;;;;;;;;;;;;9.32;42.82;102774.34;4979134;28;96795;-80
2021/03/06 10:53:27;;;;;;;7.28;1.88;;;;;;;9.99;41.57;102778.75;4971108;28;96799;-79
2021/03/06 10:55:55;;;;;;;8.95;2.50;;;;;;;9.55;42.67;102780.53;4967223;28;98950;-79
2021/03/06 10:58:40;;;;;;;22.10;2.70;;;;;;;8.84;45.00;102794.41;4977537;28;99215;-79
2021/03/06 11:01:06;;;;;;;10.18;2.63;;;;;;;8.83;46.73;102791.78;4975978;28;96788;-79
2021/03/06 11:03:39;;;;;;;12.43;1.90;;;;;;;8.82;47.74;102790.88;4966681;28;96780;-81
2021/03/06 11:06:06;;;;;;;11.23;2.25;;;;;;;8.45;48.09;102789.84;4960790;28;99554;-79
2021/03/06 11:08:34;;;;;;;9.48;2.80;;;;;;;9.04;47.20;102782.19;4974216;28;98756;-79
2021/03/06 11:11:02;;;;;;;10.73;2.47;;;;;;;9.04;46.99;102774.28;4965349;28;96928;-78
2021/03/06 11:13:48;;;;;;;6.70;2.80;;;;;;;9.23;46.47;102775.22;4984173;28;97202;-78
2021/03/06 11:16:14;;;;;;;11.40;2.88;;;;;;;9.35;45.99;102769.06;4964105;28;98123;-79
2021/03/06 11:18:42;;;;;;;4.72;2.22;;;;;;;9.20;45.67;102773.44;4968499;28;99780;-79
2021/03/06 11:21:11;;;;;;;8.82;2.58;;;;;;;8.87;46.24;102777.72;4966387;28;96990;-79
2021/03/06 11:23:37;;;;;;;11.80;2.83;;;;;;;9.01;45.05;102776.91;4990263;28;96543;-79
2021/03/06 11:26:05;;;;;;;10.63;2.70;;;;;;;8.88;45.38;102785.63;4990454;28;99312;-83
2021/03/06 11:28:33;;;;;;;12.23;3.08;;;;;;;8.72;45.74;102784.72;4992497;28;99238;-80
2021/03/06 11:31:01;;;;;;;8.13;3.10;;;;;;;9.10;45.37;102778.69;4975991;28;97014;-79
2021/03/06 11:33:27;;;;;;;10.07;3.00;;;;;;;9.00;45.69;102775.13;4963944;28;96817;-80
2021/03/06 11:35:53;;;;;;;13.48;3.50;;;;;;;9.18;45.25;102769.94;4971091;28;98989;-80
2021/03/06 11:38:23;;;;;;;6.60;3.33;;;;;;;9.27;45.00;102769.03;4977812;28;98874;-79
2021/03/06 11:40:50;;;;;;;10.85;5.43;;;;;;;9.31;45.38;102762.03;4977189;28;97431;-78
2021/03/06 11:43:18;;;;;;;9.15;4.20;;;;;;;9.26;45.49;102755.84;4984794;28;96788;-78
2021/03/06 11:45:45;;;;;;;9.23;4.53;;;;;;;9.74;44.37;102758.53;4984217;28;96799;-78
2021/03/06 11:48:11;;;;;;;16.83;3.50;;;;;;;9.83;43.41;102750.63;4979736;28;101066;-78
2021/03/06 11:50:42;;;;;;;17.70;4.10;;;;;;;9.78;43.67;102751.50;4982125;28;96727;-78
2021/03/06 11:53:08;;;;;;;12.18;3.67;;;;;;;8.88;45.71;102750.47;4983619;28;97207;-80